Farmersville, Ohio
Current Conditions -  °F | °C
As of 2:15 PM on Sunday 21 Dec 2014 (Local Time) from KMWO Reporting Station
Clear Clear  
Wind Chill: 35°   Ceiling: Unl
Heat Index: 39°   Visibility: 10mi
Dew Point: 24°   Wind: 6mph
Humidity: 55%   Direction: 180°S
Pressure: 30.23"   Gusts: NA
Location:  39.68°N, 84.43°W
Report Text: KMWO 211915Z AUTO 18005KT 10SM CLR 04/M04 A3023 RMK AO2 T00401044
Loading
Personal Weather Stations






























Interactive Weather Map New forecast layout! Learn more

10-Day Weather Forecast

Advertisements
Track Severe Weather on mobile